sensor_id;sensor_type;location;lat;lon;timestamp;temperature;humidity
21950;DHT22;11139;51.284;7.226;2023-01-10T00:01:21;7.50;99.90
21950;DHT22;11139;51.284;7.226;2023-01-10T00:03:46;7.40;99.90
21950;DHT22;11139;51.284;7.226;2023-01-10T00:06:12;7.40;99.90
21950;DHT22;11139;51.284;7.226;2023-01-10T00:08:37;7.40;99.90
21950;DHT22;11139;51.284;7.226;2023-01-10T00:11:03;7.40;99.90
21950;DHT22;11139;51.284;7.226;2023-01-10T00:13:51;7.40;99.90
21950;DHT22;11139;51.284;7.226;2023-01-10T00:16:17;7.40;99.90
21950;DHT22;11139;51.284;7.226;2023-01-10T00:18:42;7.40;99.90
21950;DHT22;11139;51.284;7.226;2023-01-10T00:21:08;7.40;99.90
21950;DHT22;11139;51.284;7.226;2023-01-10T00:23:33;7.40;99.90
21950;DHT22;11139;51.284;7.226;2023-01-10T00:26:00;7.40;99.90
21950;DHT22;11139;51.284;7.226;2023-01-10T00:28:25;7.40;99.90
21950;DHT22;11139;51.284;7.226;2023-01-10T00:30:52;7.40;99.90
21950;DHT22;11139;51.284;7.226;2023-01-10T00:33:25;7.40;99.90
21950;DHT22;11139;51.284;7.226;2023-01-10T00:35:51;7.40;99.90
21950;DHT22;11139;51.284;7.226;2023-01-10T00:38:16;7.40;99.90
21950;DHT22;11139;51.284;7.226;2023-01-10T00:40:41;7.40;99.90
21950;DHT22;11139;51.284;7.226;2023-01-10T00:43:08;7.40;99.90
21950;DHT22;11139;51.284;7.226;2023-01-10T00:45:52;7.40;99.90
21950;DHT22;11139;51.284;7.226;2023-01-10T00:48:17;7.40;99.90
21950;DHT22;11139;51.284;7.226;2023-01-10T00:50:43;7.40;99.90
21950;DHT22;11139;51.284;7.226;2023-01-10T00:53:09;7.40;99.90
21950;DHT22;11139;51.284;7.226;2023-01-10T00:55:34;7.40;99.90
21950;DHT22;11139;51.284;7.226;2023-01-10T00:58:00;7.40;99.90
21950;DHT22;11139;51.284;7.226;2023-01-10T01:00:25;7.40;99.90
21950;DHT22;11139;51.284;7.226;2023-01-10T01:02:51;7.40;99.90
21950;DHT22;11139;51.284;7.226;2023-01-10T01:05:17;7.40;99.90
21950;DHT22;11139;51.284;7.226;2023-01-10T01:07:42;7.40;99.90
21950;DHT22;11139;51.284;7.226;2023-01-10T01:10:08;7.40;99.90
21950;DHT22;11139;51.284;7.226;2023-01-10T01:12:59;7.40;99.90
21950;DHT22;11139;51.284;7.226;2023-01-10T01:15:29;7.30;99.90
21950;DHT22;11139;51.284;7.226;2023-01-10T01:17:55;7.40;99.90
21950;DHT22;11139;51.284;7.226;2023-01-10T01:20:20;7.40;99.90
21950;DHT22;11139;51.284;7.226;2023-01-10T01:22:46;7.40;99.90
21950;DHT22;11139;51.284;7.226;2023-01-10T01:25:11;7.30;99.90
21950;DHT22;11139;51.284;7.226;2023-01-10T01:27:37;7.30;99.90
21950;DHT22;11139;51.284;7.226;2023-01-10T01:30:03;7.40;99.90
21950;DHT22;11139;51.284;7.226;2023-01-10T01:32:29;7.40;99.90
21950;DHT22;11139;51.284;7.226;2023-01-10T01:34:55;7.30;99.90
21950;DHT22;11139;51.284;7.226;2023-01-10T01:37:20;7.30;99.90
21950;DHT22;11139;51.284;7.226;2023-01-10T01:39:46;7.30;99.90
21950;DHT22;11139;51.284;7.226;2023-01-10T01:45:02;7.30;99.90
21950;DHT22;11139;51.284;7.226;2023-01-10T01:47:31;7.30;99.90
21950;DHT22;11139;51.284;7.226;2023-01-10T01:49:57;7.40;99.90
21950;DHT22;11139;51.284;7.226;2023-01-10T01:52:24;7.30;99.90
21950;DHT22;11139;51.284;7.226;2023-01-10T01:54:52;7.30;99.90
21950;DHT22;11139;51.284;7.226;2023-01-10T01:57:19;7.30;99.90
21950;DHT22;11139;51.284;7.226;2023-01-10T01:59:47;7.30;99.90
21950;DHT22;11139;51.284;7.226;2023-01-10T02:02:17;7.30;99.90
21950;DHT22;11139;51.284;7.226;2023-01-10T02:04:46;7.30;99.90
21950;DHT22;11139;51.284;7.226;2023-01-10T02:07:13;7.30;99.90
21950;DHT22;11139;51.284;7.226;2023-01-10T02:09:40;7.30;99.90
21950;DHT22;11139;51.284;7.226;2023-01-10T02:12:07;7.30;99.90
21950;DHT22;11139;51.284;7.226;2023-01-10T02:14:33;7.30;99.90
21950;DHT22;11139;51.284;7.226;2023-01-10T02:17:00;7.30;99.90
21950;DHT22;11139;51.284;7.226;2023-01-10T02:24:39;7.30;99.90
21950;DHT22;11139;51.284;7.226;2023-01-10T02:29:54;7.30;99.90
21950;DHT22;11139;51.284;7.226;2023-01-10T02:32:34;7.30;99.90
21950;DHT22;11139;51.284;7.226;2023-01-10T02:43:05;7.30;99.90
21950;DHT22;11139;51.284;7.226;2023-01-10T02:47:57;7.30;99.90
21950;DHT22;11139;51.284;7.226;2023-01-10T02:53:09;7.20;99.90
21950;DHT22;11139;51.284;7.226;2023-01-10T02:55:46;7.30;99.90
21950;DHT22;11139;51.284;7.226;2023-01-10T02:58:32;7.20;99.90
21950;DHT22;11139;51.284;7.226;2023-01-10T03:01:05;7.20;99.90
21950;DHT22;11139;51.284;7.226;2023-01-10T03:03:38;7.20;99.90
21950;DHT22;11139;51.284;7.226;2023-01-10T03:06:17;7.20;99.90
21950;DHT22;11139;51.284;7.226;2023-01-10T03:11:14;7.20;99.90
21950;DHT22;11139;51.284;7.226;2023-01-10T03:13:54;7.20;99.90
21950;DHT22;11139;51.284;7.226;2023-01-10T03:16:23;7.20;99.90
21950;DHT22;11139;51.284;7.226;2023-01-10T03:18:53;7.20;99.90
21950;DHT22;11139;51.284;7.226;2023-01-10T03:21:21;7.20;99.90
21950;DHT22;11139;51.284;7.226;2023-01-10T03:23:47;7.20;99.90
21950;DHT22;11139;51.284;7.226;2023-01-10T03:26:13;7.20;99.90
21950;DHT22;11139;51.284;7.226;2023-01-10T03:31:07;7.20;99.90
21950;DHT22;11139;51.284;7.226;2023-01-10T03:33:34;7.10;99.90
21950;DHT22;11139;51.284;7.226;2023-01-10T03:36:36;7.10;99.90
21950;DHT22;11139;51.284;7.226;2023-01-10T03:38:55;7.10;99.90
21950;DHT22;11139;51.284;7.226;2023-01-10T03:46:58;7.10;99.90
21950;DHT22;11139;51.284;7.226;2023-01-10T03:49:24;7.10;99.90
21950;DHT22;11139;51.284;7.226;2023-01-10T03:51:51;7.10;99.90
21950;DHT22;11139;51.284;7.226;2023-01-10T03:54:18;7.10;99.90
21950;DHT22;11139;51.284;7.226;2023-01-10T03:56:47;7.10;99.90
21950;DHT22;11139;51.284;7.226;2023-01-10T03:59:17;7.10;99.90
21950;DHT22;11139;51.284;7.226;2023-01-10T04:01:43;7.10;99.90
21950;DHT22;11139;51.284;7.226;2023-01-10T04:04:08;7.10;99.90
21950;DHT22;11139;51.284;7.226;2023-01-10T04:06:35;7.10;99.90
21950;DHT22;11139;51.284;7.226;2023-01-10T04:09:01;7.10;99.90
21950;DHT22;11139;51.284;7.226;2023-01-10T04:11:26;7.10;99.90
21950;DHT22;11139;51.284;7.226;2023-01-10T04:13:52;7.10;99.90
21950;DHT22;11139;51.284;7.226;2023-01-10T04:16:17;7.10;99.90
21950;DHT22;11139;51.284;7.226;2023-01-10T04:18:44;7.10;99.90
21950;DHT22;11139;51.284;7.226;2023-01-10T04:21:10;7.10;99.90
21950;DHT22;11139;51.284;7.226;2023-01-10T04:23:35;7.00;99.90
21950;DHT22;11139;51.284;7.226;2023-01-10T04:26:01;7.00;99.90
21950;DHT22;11139;51.284;7.226;2023-01-10T04:28:26;7.00;99.90
21950;DHT22;11139;51.284;7.226;2023-01-10T04:30:52;7.00;99.90
21950;DHT22;11139;51.284;7.226;2023-01-10T04:33:17;7.10;99.90
21950;DHT22;11139;51.284;7.226;2023-01-10T04:35:46;7.00;99.90
21950;DHT22;11139;51.284;7.226;2023-01-10T04:38:12;7.00;99.90
21950;DHT22;11139;51.284;7.226;2023-01-10T04:40:37;7.00;99.90
21950;DHT22;11139;51.284;7.226;2023-01-10T04:43:03;7.00;99.90
21950;DHT22;11139;51.284;7.226;2023-01-10T04:45:28;7.00;99.90
21950;DHT22;11139;51.284;7.226;2023-01-10T04:47:54;7.00;99.90
21950;DHT22;11139;51.284;7.226;2023-01-10T04:50:20;7.00;99.90
21950;DHT22;11139;51.284;7.226;2023-01-10T04:52:46;7.10;99.90
21950;DHT22;11139;51.284;7.226;2023-01-10T04:55:12;7.00;99.90
21950;DHT22;11139;51.284;7.226;2023-01-10T04:57:37;7.00;99.90
21950;DHT22;11139;51.284;7.226;2023-01-10T05:00:03;7.00;99.90
21950;DHT22;11139;51.284;7.226;2023-01-10T05:02:29;7.00;99.90
21950;DHT22;11139;51.284;7.226;2023-01-10T05:04:54;7.00;99.90
21950;DHT22;11139;51.284;7.226;2023-01-10T05:07:19;7.00;99.90
21950;DHT22;11139;51.284;7.226;2023-01-10T05:09:45;6.90;99.90
21950;DHT22;11139;51.284;7.226;2023-01-10T05:12:10;7.00;99.90
21950;DHT22;11139;51.284;7.226;2023-01-10T05:14:36;7.00;99.90
21950;DHT22;11139;51.284;7.226;2023-01-10T05:17:01;7.00;99.90
21950;DHT22;11139;51.284;7.226;2023-01-10T05:19:27;6.90;99.90
21950;DHT22;11139;51.284;7.226;2023-01-10T05:21:52;7.00;99.90
21950;DHT22;11139;51.284;7.226;2023-01-10T05:24:18;6.90;99.90
21950;DHT22;11139;51.284;7.226;2023-01-10T05:26:43;7.00;99.90
21950;DHT22;11139;51.284;7.226;2023-01-10T05:29:09;6.90;99.90
21950;DHT22;11139;51.284;7.226;2023-01-10T05:31:35;6.90;99.90
21950;DHT22;11139;51.284;7.226;2023-01-10T05:34:00;6.90;99.90
21950;DHT22;11139;51.284;7.226;2023-01-10T05:36:26;6.90;99.90
21950;DHT22;11139;51.284;7.226;2023-01-10T05:38:51;6.90;99.90
21950;DHT22;11139;51.284;7.226;2023-01-10T05:41:17;6.90;99.90
21950;DHT22;11139;51.284;7.226;2023-01-10T05:43:42;6.90;99.90
21950;DHT22;11139;51.284;7.226;2023-01-10T05:46:08;6.80;99.90
21950;DHT22;11139;51.284;7.226;2023-01-10T05:48:33;6.80;99.90
21950;DHT22;11139;51.284;7.226;2023-01-10T05:50:59;6.80;99.90
21950;DHT22;11139;51.284;7.226;2023-01-10T05:53:24;6.80;99.90
21950;DHT22;11139;51.284;7.226;2023-01-10T05:55:57;6.80;99.90
21950;DHT22;11139;51.284;7.226;2023-01-10T05:58:23;6.80;99.90
21950;DHT22;11139;51.284;7.226;2023-01-10T06:00:48;6.80;99.90
21950;DHT22;11139;51.284;7.226;2023-01-10T06:03:14;6.80;99.90
21950;DHT22;11139;51.284;7.226;2023-01-10T06:05:39;6.80;99.90
21950;DHT22;11139;51.284;7.226;2023-01-10T06:08:05;6.80;99.90
21950;DHT22;11139;51.284;7.226;2023-01-10T06:10:30;6.80;99.90
21950;DHT22;11139;51.284;7.226;2023-01-10T06:12:55;6.80;99.90
21950;DHT22;11139;51.284;7.226;2023-01-10T06:15:21;6.80;99.90
21950;DHT22;11139;51.284;7.226;2023-01-10T06:17:46;6.80;99.90
21950;DHT22;11139;51.284;7.226;2023-01-10T06:20:12;6.80;99.90
21950;DHT22;11139;51.284;7.226;2023-01-10T06:22:41;6.80;99.90
21950;DHT22;11139;51.284;7.226;2023-01-10T06:25:07;6.80;99.90
21950;DHT22;11139;51.284;7.226;2023-01-10T06:27:33;6.80;99.90
21950;DHT22;11139;51.284;7.226;2023-01-10T06:29:58;6.80;99.90
21950;DHT22;11139;51.284;7.226;2023-01-10T06:32:26;6.80;99.90
21950;DHT22;11139;51.284;7.226;2023-01-10T06:34:51;6.80;99.90
21950;DHT22;11139;51.284;7.226;2023-01-10T06:37:16;6.80;99.90
21950;DHT22;11139;51.284;7.226;2023-01-10T06:39:42;6.80;99.90
21950;DHT22;11139;51.284;7.226;2023-01-10T06:42:08;6.80;99.90
21950;DHT22;11139;51.284;7.226;2023-01-10T06:44:33;6.80;99.90
21950;DHT22;11139;51.284;7.226;2023-01-10T06:46:58;6.80;99.90
21950;DHT22;11139;51.284;7.226;2023-01-10T06:49:24;6.80;99.90
21950;DHT22;11139;51.284;7.226;2023-01-10T06:51:49;6.80;99.90
21950;DHT22;11139;51.284;7.226;2023-01-10T06:54:15;6.80;99.90
21950;DHT22;11139;51.284;7.226;2023-01-10T06:56:41;6.80;99.90
21950;DHT22;11139;51.284;7.226;2023-01-10T06:59:07;6.80;99.90
21950;DHT22;11139;51.284;7.226;2023-01-10T07:01:33;6.80;99.90
21950;DHT22;11139;51.284;7.226;2023-01-10T07:03:59;6.70;99.90
21950;DHT22;11139;51.284;7.226;2023-01-10T07:06:24;6.70;99.90
21950;DHT22;11139;51.284;7.226;2023-01-10T07:08:50;6.70;99.90
21950;DHT22;11139;51.284;7.226;2023-01-10T07:11:15;6.80;99.90
21950;DHT22;11139;51.284;7.226;2023-01-10T07:13:41;6.80;99.90
21950;DHT22;11139;51.284;7.226;2023-01-10T07:16:08;6.80;99.90
21950;DHT22;11139;51.284;7.226;2023-01-10T07:18:34;6.80;99.90
21950;DHT22;11139;51.284;7.226;2023-01-10T07:21:00;6.70;99.90
21950;DHT22;11139;51.284;7.226;2023-01-10T07:23:26;6.70;99.90
21950;DHT22;11139;51.284;7.226;2023-01-10T07:25:52;6.70;99.90
21950;DHT22;11139;51.284;7.226;2023-01-10T07:28:17;6.70;99.90
21950;DHT22;11139;51.284;7.226;2023-01-10T07:30:43;6.70;99.90
21950;DHT22;11139;51.284;7.226;2023-01-10T07:33:08;6.70;99.90
21950;DHT22;11139;51.284;7.226;2023-01-10T07:35:33;6.70;99.90
21950;DHT22;11139;51.284;7.226;2023-01-10T07:37:59;6.70;99.90
21950;DHT22;11139;51.284;7.226;2023-01-10T07:40:25;6.70;99.90
21950;DHT22;11139;51.284;7.226;2023-01-10T07:42:57;6.70;99.90
21950;DHT22;11139;51.284;7.226;2023-01-10T07:45:23;6.70;99.90
21950;DHT22;11139;51.284;7.226;2023-01-10T07:47:48;6.70;99.90
21950;DHT22;11139;51.284;7.226;2023-01-10T07:50:14;6.70;99.90
21950;DHT22;11139;51.284;7.226;2023-01-10T07:52:40;6.70;99.90
21950;DHT22;11139;51.284;7.226;2023-01-10T07:55:05;6.70;99.90
21950;DHT22;11139;51.284;7.226;2023-01-10T07:57:31;6.70;99.90
21950;DHT22;11139;51.284;7.226;2023-01-10T07:59:56;6.70;99.90
21950;DHT22;11139;51.284;7.226;2023-01-10T08:02:22;6.70;99.90
21950;DHT22;11139;51.284;7.226;2023-01-10T08:04:48;6.60;99.90
21950;DHT22;11139;51.284;7.226;2023-01-10T08:07:13;6.70;99.90
21950;DHT22;11139;51.284;7.226;2023-01-10T08:09:39;6.70;99.90
21950;DHT22;11139;51.284;7.226;2023-01-10T08:12:04;6.70;99.90
21950;DHT22;11139;51.284;7.226;2023-01-10T08:14:30;6.70;99.90
21950;DHT22;11139;51.284;7.226;2023-01-10T08:16:55;6.60;99.90
21950;DHT22;11139;51.284;7.226;2023-01-10T08:19:21;6.60;99.90
21950;DHT22;11139;51.284;7.226;2023-01-10T08:21:46;6.50;99.90
21950;DHT22;11139;51.284;7.226;2023-01-10T08:24:12;6.40;99.90
21950;DHT22;11139;51.284;7.226;2023-01-10T08:26:37;6.40;99.90
21950;DHT22;11139;51.284;7.226;2023-01-10T08:29:03;6.40;99.90
21950;DHT22;11139;51.284;7.226;2023-01-10T08:31:28;6.40;99.90
21950;DHT22;11139;51.284;7.226;2023-01-10T08:33:54;6.50;99.90
21950;DHT22;11139;51.284;7.226;2023-01-10T08:36:20;6.40;99.90
21950;DHT22;11139;51.284;7.226;2023-01-10T08:38:46;6.40;99.90
21950;DHT22;11139;51.284;7.226;2023-01-10T08:41:12;6.50;99.90
21950;DHT22;11139;51.284;7.226;2023-01-10T08:43:38;6.40;99.90
21950;DHT22;11139;51.284;7.226;2023-01-10T08:46:05;6.50;99.90
21950;DHT22;11139;51.284;7.226;2023-01-10T08:48:30;6.50;99.90
21950;DHT22;11139;51.284;7.226;2023-01-10T08:50:56;6.50;99.90
21950;DHT22;11139;51.284;7.226;2023-01-10T08:53:21;6.50;99.90
21950;DHT22;11139;51.284;7.226;2023-01-10T08:55:47;6.50;99.90
21950;DHT22;11139;51.284;7.226;2023-01-10T08:58:13;6.50;99.90
21950;DHT22;11139;51.284;7.226;2023-01-10T09:00:38;6.40;99.90
21950;DHT22;11139;51.284;7.226;2023-01-10T09:03:07;6.50;99.90
21950;DHT22;11139;51.284;7.226;2023-01-10T09:05:32;6.50;99.90
21950;DHT22;11139;51.284;7.226;2023-01-10T09:07:58;6.50;99.90
21950;DHT22;11139;51.284;7.226;2023-01-10T09:10:24;6.50;99.90
21950;DHT22;11139;51.284;7.226;2023-01-10T09:12:50;6.50;99.90
21950;DHT22;11139;51.284;7.226;2023-01-10T09:15:19;6.50;99.90
21950;DHT22;11139;51.284;7.226;2023-01-10T09:17:45;6.50;99.90
21950;DHT22;11139;51.284;7.226;2023-01-10T09:20:10;6.50;99.90
21950;DHT22;11139;51.284;7.226;2023-01-10T09:22:36;6.50;99.90
21950;DHT22;11139;51.284;7.226;2023-01-10T09:25:02;6.50;99.90
21950;DHT22;11139;51.284;7.226;2023-01-10T09:27:27;6.50;99.90
21950;DHT22;11139;51.284;7.226;2023-01-10T09:29:53;6.40;99.90
21950;DHT22;11139;51.284;7.226;2023-01-10T09:32:18;6.50;99.90
21950;DHT22;11139;51.284;7.226;2023-01-10T09:34:44;6.50;99.90
21950;DHT22;11139;51.284;7.226;2023-01-10T09:37:10;6.50;99.90
21950;DHT22;11139;51.284;7.226;2023-01-10T09:39:35;6.40;99.90
21950;DHT22;11139;51.284;7.226;2023-01-10T09:52:10;6.50;99.90
21950;DHT22;11139;51.284;7.226;2023-01-10T09:54:38;6.50;99.90
21950;DHT22;11139;51.284;7.226;2023-01-10T09:57:07;6.50;99.90
21950;DHT22;11139;51.284;7.226;2023-01-10T09:59:37;6.50;99.90
21950;DHT22;11139;51.284;7.226;2023-01-10T10:02:13;6.50;99.90
21950;DHT22;11139;51.284;7.226;2023-01-10T10:04:41;6.50;99.90
21950;DHT22;11139;51.284;7.226;2023-01-10T10:07:14;6.50;99.90
21950;DHT22;11139;51.284;7.226;2023-01-10T10:09:39;6.50;99.90
21950;DHT22;11139;51.284;7.226;2023-01-10T10:17:50;6.50;99.90
21950;DHT22;11139;51.284;7.226;2023-01-10T10:22:49;6.50;99.90
21950;DHT22;11139;51.284;7.226;2023-01-10T10:27:51;6.60;99.90
21950;DHT22;11139;51.284;7.226;2023-01-10T10:32:56;6.60;99.90
21950;DHT22;11139;51.284;7.226;2023-01-10T10:37:56;6.60;99.90
21950;DHT22;11139;51.284;7.226;2023-01-10T10:40:23;6.70;99.90
21950;DHT22;11139;51.284;7.226;2023-01-10T10:42:52;6.70;99.90
21950;DHT22;11139;51.284;7.226;2023-01-10T10:45:23;6.70;99.90
21950;DHT22;11139;51.284;7.226;2023-01-10T10:48:02;6.70;99.90
21950;DHT22;11139;51.284;7.226;2023-01-10T10:50:30;6.70;99.90
21950;DHT22;11139;51.284;7.226;2023-01-10T10:52:56;6.70;99.90
21950;DHT22;11139;51.284;7.226;2023-01-10T10:55:28;6.70;99.90
21950;DHT22;11139;51.284;7.226;2023-01-10T10:57:54;6.70;99.90
21950;DHT22;11139;51.284;7.226;2023-01-10T11:00:20;6.70;99.90
21950;DHT22;11139;51.284;7.226;2023-01-10T11:02:48;6.70;99.90
21950;DHT22;11139;51.284;7.226;2023-01-10T11:05:33;6.70;99.90
21950;DHT22;11139;51.284;7.226;2023-01-10T11:08:00;6.70;99.90
21950;DHT22;11139;51.284;7.226;2023-01-10T11:10:30;6.70;99.90
21950;DHT22;11139;51.284;7.226;2023-01-10T11:13:45;6.70;99.90
21950;DHT22;11139;51.284;7.226;2023-01-10T11:15:49;6.70;99.90
21950;DHT22;11139;51.284;7.226;2023-01-10T11:23:19;6.70;99.90
21950;DHT22;11139;51.284;7.226;2023-01-10T11:25:45;6.70;99.90
21950;DHT22;11139;51.284;7.226;2023-01-10T11:28:11;6.70;99.90
21950;DHT22;11139;51.284;7.226;2023-01-10T11:30:38;6.70;99.90
21950;DHT22;11139;51.284;7.226;2023-01-10T11:33:05;6.70;99.90
21950;DHT22;11139;51.284;7.226;2023-01-10T11:35:32;6.70;99.90
21950;DHT22;11139;51.284;7.226;2023-01-10T11:38:01;6.70;99.90
21950;DHT22;11139;51.284;7.226;2023-01-10T11:40:28;6.70;99.90
21950;DHT22;11139;51.284;7.226;2023-01-10T11:42:54;6.70;99.90
21950;DHT22;11139;51.284;7.226;2023-01-10T11:50:16;6.70;99.90
21950;DHT22;11139;51.284;7.226;2023-01-10T11:52:44;6.70;99.90
21950;DHT22;11139;51.284;7.226;2023-01-10T11:55:10;6.70;99.90
21950;DHT22;11139;51.284;7.226;2023-01-10T11:57:41;6.70;99.90
21950;DHT22;11139;51.284;7.226;2023-01-10T12:00:07;6.70;99.90
21950;DHT22;11139;51.284;7.226;2023-01-10T12:02:34;6.70;99.90
21950;DHT22;11139;51.284;7.226;2023-01-10T12:05:02;6.70;99.90
21950;DHT22;11139;51.284;7.226;2023-01-10T12:07:28;6.70;99.90
21950;DHT22;11139;51.284;7.226;2023-01-10T12:10:00;6.70;99.90
21950;DHT22;11139;51.284;7.226;2023-01-10T12:14:52;6.70;99.90
21950;DHT22;11139;51.284;7.226;2023-01-10T12:19:43;6.70;99.90
21950;DHT22;11139;51.284;7.226;2023-01-10T12:22:09;6.70;99.90
21950;DHT22;11139;51.284;7.226;2023-01-10T12:24:37;6.70;99.90
21950;DHT22;11139;51.284;7.226;2023-01-10T12:27:05;6.70;99.90
21950;DHT22;11139;51.284;7.226;2023-01-10T12:29:34;6.70;99.90
21950;DHT22;11139;51.284;7.226;2023-01-10T12:32:02;6.70;99.90
21950;DHT22;11139;51.284;7.226;2023-01-10T12:34:41;6.70;99.90
21950;DHT22;11139;51.284;7.226;2023-01-10T12:37:18;6.70;99.90
21950;DHT22;11139;51.284;7.226;2023-01-10T12:39:49;6.70;99.90
21950;DHT22;11139;51.284;7.226;2023-01-10T12:45:30;6.70;99.90
21950;DHT22;11139;51.284;7.226;2023-01-10T12:50:42;6.70;99.90
21950;DHT22;11139;51.284;7.226;2023-01-10T12:53:20;6.70;99.90
21950;DHT22;11139;51.284;7.226;2023-01-10T12:55:48;6.70;99.90
21950;DHT22;11139;51.284;7.226;2023-01-10T13:00:43;6.70;99.90
21950;DHT22;11139;51.284;7.226;2023-01-10T13:03:11;6.70;99.90
21950;DHT22;11139;51.284;7.226;2023-01-10T13:05:38;6.70;99.90
21950;DHT22;11139;51.284;7.226;2023-01-10T13:08:11;6.70;99.90
21950;DHT22;11139;51.284;7.226;2023-01-10T13:10:37;6.70;99.90
21950;DHT22;11139;51.284;7.226;2023-01-10T13:13:10;6.70;99.90
21950;DHT22;11139;51.284;7.226;2023-01-10T13:15:37;6.70;99.90
21950;DHT22;11139;51.284;7.226;2023-01-10T13:20:40;6.70;99.90
21950;DHT22;11139;51.284;7.226;2023-01-10T13:25:52;6.70;99.90
21950;DHT22;11139;51.284;7.226;2023-01-10T13:28:19;6.70;99.90
21950;DHT22;11139;51.284;7.226;2023-01-10T13:31:05;6.70;99.90
21950;DHT22;11139;51.284;7.226;2023-01-10T13:33:53;6.70;99.90
21950;DHT22;11139;51.284;7.226;2023-01-10T13:36:18;6.70;99.90
21950;DHT22;11139;51.284;7.226;2023-01-10T13:38:49;6.70;99.90
21950;DHT22;11139;51.284;7.226;2023-01-10T13:41:15;6.70;99.90
21950;DHT22;11139;51.284;7.226;2023-01-10T13:51:17;6.70;99.90
21950;DHT22;11139;51.284;7.226;2023-01-10T13:53:44;6.70;99.90
21950;DHT22;11139;51.284;7.226;2023-01-10T13:58:59;6.70;99.90
21950;DHT22;11139;51.284;7.226;2023-01-10T14:01:46;6.70;99.90
21950;DHT22;11139;51.284;7.226;2023-01-10T14:04:33;6.80;99.90
21950;DHT22;11139;51.284;7.226;2023-01-10T14:07:00;6.70;99.90
21950;DHT22;11139;51.284;7.226;2023-01-10T14:11:56;6.80;99.90
21950;DHT22;11139;51.284;7.226;2023-01-10T14:14:33;6.70;99.90
21950;DHT22;11139;51.284;7.226;2023-01-10T14:17:14;6.80;99.90
21950;DHT22;11139;51.284;7.226;2023-01-10T14:19:46;6.80;99.90
21950;DHT22;11139;51.284;7.226;2023-01-10T14:22:26;6.90;99.90
21950;DHT22;11139;51.284;7.226;2023-01-10T14:24:52;6.90;99.90
21950;DHT22;11139;51.284;7.226;2023-01-10T14:27:18;6.90;99.90
21950;DHT22;11139;51.284;7.226;2023-01-10T14:29:48;6.90;99.90
21950;DHT22;11139;51.284;7.226;2023-01-10T14:34:53;7.00;99.90
21950;DHT22;11139;51.284;7.226;2023-01-10T14:39:50;7.00;99.90
21950;DHT22;11139;51.284;7.226;2023-01-10T14:42:17;7.00;99.90
21950;DHT22;11139;51.284;7.226;2023-01-10T14:44:47;7.00;99.90
21950;DHT22;11139;51.284;7.226;2023-01-10T14:47:33;7.00;99.90
21950;DHT22;11139;51.284;7.226;2023-01-10T14:49:59;7.00;99.90
21950;DHT22;11139;51.284;7.226;2023-01-10T14:52:31;7.00;99.90
21950;DHT22;11139;51.284;7.226;2023-01-10T14:55:09;7.00;99.90
21950;DHT22;11139;51.284;7.226;2023-01-10T14:57:35;7.00;99.90
21950;DHT22;11139;51.284;7.226;2023-01-10T15:00:23;7.00;99.90
21950;DHT22;11139;51.284;7.226;2023-01-10T15:02:46;7.00;99.90
21950;DHT22;11139;51.284;7.226;2023-01-10T15:07:41;7.00;99.90
21950;DHT22;11139;51.284;7.226;2023-01-10T15:12:41;6.90;99.90
21950;DHT22;11139;51.284;7.226;2023-01-10T15:15:16;7.00;99.90
21950;DHT22;11139;51.284;7.226;2023-01-10T15:17:42;6.90;99.90
21950;DHT22;11139;51.284;7.226;2023-01-10T15:20:12;6.90;99.90
21950;DHT22;11139;51.284;7.226;2023-01-10T15:22:38;6.90;99.90
21950;DHT22;11139;51.284;7.226;2023-01-10T15:25:05;6.90;99.90
21950;DHT22;11139;51.284;7.226;2023-01-10T15:27:32;6.90;99.90
21950;DHT22;11139;51.284;7.226;2023-01-10T15:29:58;6.90;99.90
21950;DHT22;11139;51.284;7.226;2023-01-10T15:32:34;6.90;99.90
21950;DHT22;11139;51.284;7.226;2023-01-10T15:35:00;6.90;99.90
21950;DHT22;11139;51.284;7.226;2023-01-10T15:37:26;6.90;99.90
21950;DHT22;11139;51.284;7.226;2023-01-10T15:39:58;6.90;99.90
21950;DHT22;11139;51.284;7.226;2023-01-10T15:42:24;6.90;99.90
21950;DHT22;11139;51.284;7.226;2023-01-10T15:44:50;6.90;99.90
21950;DHT22;11139;51.284;7.226;2023-01-10T15:49:54;6.90;99.90
21950;DHT22;11139;51.284;7.226;2023-01-10T15:52:20;6.90;99.90
21950;DHT22;11139;51.284;7.226;2023-01-10T15:54:46;6.90;99.90
21950;DHT22;11139;51.284;7.226;2023-01-10T15:57:18;6.90;99.90
21950;DHT22;11139;51.284;7.226;2023-01-10T15:59:47;6.90;99.90
21950;DHT22;11139;51.284;7.226;2023-01-10T16:02:22;6.90;99.90
21950;DHT22;11139;51.284;7.226;2023-01-10T16:04:53;6.90;99.90
21950;DHT22;11139;51.284;7.226;2023-01-10T16:07:24;6.90;99.90
21950;DHT22;11139;51.284;7.226;2023-01-10T16:09:53;6.90;99.90
21950;DHT22;11139;51.284;7.226;2023-01-10T16:12:23;6.90;99.90
21950;DHT22;11139;51.284;7.226;2023-01-10T16:15:12;6.90;99.90
21950;DHT22;11139;51.284;7.226;2023-01-10T16:17:38;6.90;99.90
21950;DHT22;11139;51.284;7.226;2023-01-10T16:20:04;6.90;99.90
21950;DHT22;11139;51.284;7.226;2023-01-10T16:22:29;6.90;99.90
21950;DHT22;11139;51.284;7.226;2023-01-10T16:24:56;6.90;99.90
21950;DHT22;11139;51.284;7.226;2023-01-10T16:27:21;6.90;99.90
21950;DHT22;11139;51.284;7.226;2023-01-10T16:29:47;6.80;99.90
21950;DHT22;11139;51.284;7.226;2023-01-10T16:32:13;6.90;99.90
21950;DHT22;11139;51.284;7.226;2023-01-10T16:34:38;6.80;99.90
21950;DHT22;11139;51.284;7.226;2023-01-10T16:37:04;6.90;99.90
21950;DHT22;11139;51.284;7.226;2023-01-10T16:39:30;6.80;99.90
21950;DHT22;11139;51.284;7.226;2023-01-10T16:41:55;6.80;99.90
21950;DHT22;11139;51.284;7.226;2023-01-10T16:44:39;6.80;99.90
21950;DHT22;11139;51.284;7.226;2023-01-10T16:47:05;6.80;99.90
21950;DHT22;11139;51.284;7.226;2023-01-10T16:49:31;6.80;99.90
21950;DHT22;11139;51.284;7.226;2023-01-10T16:51:56;6.80;99.90
21950;DHT22;11139;51.284;7.226;2023-01-10T16:54:22;6.80;99.90
21950;DHT22;11139;51.284;7.226;2023-01-10T16:56:51;6.80;99.90
21950;DHT22;11139;51.284;7.226;2023-01-10T16:59:17;6.80;99.90
21950;DHT22;11139;51.284;7.226;2023-01-10T17:01:44;6.80;99.90
21950;DHT22;11139;51.284;7.226;2023-01-10T17:04:11;6.80;99.90
21950;DHT22;11139;51.284;7.226;2023-01-10T17:06:39;6.80;99.90
21950;DHT22;11139;51.284;7.226;2023-01-10T17:09:06;6.80;99.90
21950;DHT22;11139;51.284;7.226;2023-01-10T17:11:33;6.80;99.90
21950;DHT22;11139;51.284;7.226;2023-01-10T17:14:00;6.80;99.90
21950;DHT22;11139;51.284;7.226;2023-01-10T17:16:26;6.80;99.90
21950;DHT22;11139;51.284;7.226;2023-01-10T17:18:52;6.80;99.90
21950;DHT22;11139;51.284;7.226;2023-01-10T17:21:18;6.80;99.90
21950;DHT22;11139;51.284;7.226;2023-01-10T17:23:44;6.80;99.90
21950;DHT22;11139;51.284;7.226;2023-01-10T17:26:11;6.80;99.90
21950;DHT22;11139;51.284;7.226;2023-01-10T17:28:37;6.80;99.90
21950;DHT22;11139;51.284;7.226;2023-01-10T17:31:03;6.80;99.90
21950;DHT22;11139;51.284;7.226;2023-01-10T17:33:28;6.80;99.90
21950;DHT22;11139;51.284;7.226;2023-01-10T17:35:54;6.80;99.90
21950;DHT22;11139;51.284;7.226;2023-01-10T17:38:21;6.80;99.90
21950;DHT22;11139;51.284;7.226;2023-01-10T17:40:47;6.80;99.90
21950;DHT22;11139;51.284;7.226;2023-01-10T17:43:13;6.80;99.90